sensor_id;sensor_type;location;lat;lon;timestamp;pressure;altitude;pressure_sealevel;temperature;humidity
40788;BME280;26497;52.494;7.546;2022-10-04T00:02:23;101710.91;;;15.97;69.39
40788;BME280;26497;52.494;7.546;2022-10-04T00:04:57;101706.53;;;15.95;69.33
40788;BME280;26497;52.494;7.546;2022-10-04T00:07:32;101697.66;;;15.92;69.29
40788;BME280;26497;52.494;7.546;2022-10-04T00:10:05;101697.72;;;15.77;70.20
40788;BME280;26497;52.494;7.546;2022-10-04T00:12:46;101699.47;;;15.83;70.46
40788;BME280;26497;52.494;7.546;2022-10-04T00:15:19;101702.06;;;15.95;69.75
40788;BME280;26497;52.494;7.546;2022-10-04T00:18:19;101698.47;;;16.04;69.77
40788;BME280;26497;52.494;7.546;2022-10-04T00:21:03;101686.91;;;16.10;69.23
40788;BME280;26497;52.494;7.546;2022-10-04T00:23:45;101687.78;;;16.13;69.10
40788;BME280;26497;52.494;7.546;2022-10-04T00:29:30;101681.59;;;16.08;69.04
40788;BME280;26497;52.494;7.546;2022-10-04T00:32:29;101675.34;;;16.15;68.59
40788;BME280;26497;52.494;7.546;2022-10-04T00:34:59;101678.03;;;16.09;68.36
40788;BME280;26497;52.494;7.546;2022-10-04T00:37:26;101679.91;;;15.98;68.30
40788;BME280;26497;52.494;7.546;2022-10-04T00:40:16;101670.22;;;15.87;68.15
40788;BME280;26497;52.494;7.546;2022-10-04T00:42:51;101674.66;;;15.84;68.27
40788;BME280;26497;52.494;7.546;2022-10-04T00:45:34;101671.09;;;15.83;68.20
40788;BME280;26497;52.494;7.546;2022-10-04T00:51:10;101667.53;;;15.86;68.25
40788;BME280;26497;52.494;7.546;2022-10-04T00:53:47;101673.69;;;15.94;68.17
40788;BME280;26497;52.494;7.546;2022-10-04T00:56:23;101673.69;;;15.96;68.14
40788;BME280;26497;52.494;7.546;2022-10-04T00:59:27;101678.06;;;16.04;67.94
40788;BME280;26497;52.494;7.546;2022-10-04T01:01:59;101678.09;;;16.00;68.14
40788;BME280;26497;52.494;7.546;2022-10-04T01:04:37;101678.09;;;16.01;67.75
40788;BME280;26497;52.494;7.546;2022-10-04T01:07:08;101679.91;;;15.98;67.82
40788;BME280;26497;52.494;7.546;2022-10-04T01:09:44;101676.41;;;15.89;68.11
40788;BME280;26497;52.494;7.546;2022-10-04T01:12:23;101671.97;;;15.85;68.08
40788;BME280;26497;52.494;7.546;2022-10-04T01:15:02;101669.34;;;15.87;68.19
40788;BME280;26497;52.494;7.546;2022-10-04T01:17:32;101661.34;;;15.84;68.23
40788;BME280;26497;52.494;7.546;2022-10-04T01:19:59;101656.06;;;15.81;68.39
40788;BME280;26497;52.494;7.546;2022-10-04T01:22:39;101647.25;;;15.65;69.31
40788;BME280;26497;52.494;7.546;2022-10-04T01:25:07;101652.63;;;15.60;69.86
40788;BME280;26497;52.494;7.546;2022-10-04T01:27:39;101643.75;;;15.64;70.04
40788;BME280;26497;52.494;7.546;2022-10-04T01:30:10;101639.34;;;15.54;70.58
40788;BME280;26497;52.494;7.546;2022-10-04T01:32:39;101636.63;;;15.66;70.10
40788;BME280;26497;52.494;7.546;2022-10-04T01:35:08;101646.31;;;15.76;69.77
40788;BME280;26497;52.494;7.546;2022-10-04T01:37:38;101633.91;;;15.77;69.29
40788;BME280;26497;52.494;7.546;2022-10-04T01:40:07;101631.28;;;15.71;69.07
40788;BME280;26497;52.494;7.546;2022-10-04T01:42:40;101625.97;;;15.69;69.05
40788;BME280;26497;52.494;7.546;2022-10-04T01:45:17;101624.19;;;15.67;69.01
40788;BME280;26497;52.494;7.546;2022-10-04T01:47:51;101617.16;;;15.61;69.02
40788;BME280;26497;52.494;7.546;2022-10-04T01:50:27;101628.69;;;15.58;68.92
40788;BME280;26497;52.494;7.546;2022-10-04T01:53:05;101612.78;;;15.49;69.11
40788;BME280;26497;52.494;7.546;2022-10-04T01:55:36;101616.38;;;15.42;69.29
40788;BME280;26497;52.494;7.546;2022-10-04T01:58:10;101621.69;;;15.42;69.21
40788;BME280;26497;52.494;7.546;2022-10-04T02:00:44;101618.13;;;15.46;68.94
40788;BME280;26497;52.494;7.546;2022-10-04T02:03:17;101609.22;;;15.50;68.79
40788;BME280;26497;52.494;7.546;2022-10-04T02:05:50;101609.25;;;15.52;68.49
40788;BME280;26497;52.494;7.546;2022-10-04T02:08:26;101605.72;;;15.50;68.44
40788;BME280;26497;52.494;7.546;2022-10-04T02:10:55;101605.72;;;15.45;68.36
40788;BME280;26497;52.494;7.546;2022-10-04T02:13:25;101600.47;;;15.37;68.52
40788;BME280;26497;52.494;7.546;2022-10-04T02:15:54;101599.56;;;15.41;68.12
40788;BME280;26497;52.494;7.546;2022-10-04T02:18:23;101600.47;;;15.34;68.10
40788;BME280;26497;52.494;7.546;2022-10-04T02:20:53;101592.53;;;15.26;68.26
40788;BME280;26497;52.494;7.546;2022-10-04T02:23:22;101586.38;;;15.21;68.25
40788;BME280;26497;52.494;7.546;2022-10-04T02:25:50;101591.72;;;15.15;68.40
40788;BME280;26497;52.494;7.546;2022-10-04T02:28:17;101589.97;;;15.14;68.56
40788;BME280;26497;52.494;7.546;2022-10-04T02:30:47;101583.75;;;15.18;68.55
40788;BME280;26497;52.494;7.546;2022-10-04T02:33:30;101578.41;;;15.21;68.43
40788;BME280;26497;52.494;7.546;2022-10-04T02:35:57;101581.94;;;15.18;68.43
40788;BME280;26497;52.494;7.546;2022-10-04T02:38:32;101582.00;;;15.14;68.60
40788;BME280;26497;52.494;7.546;2022-10-04T02:41:05;101578.44;;;15.15;68.57
40788;BME280;26497;52.494;7.546;2022-10-04T02:43:42;101581.06;;;15.21;68.38
40788;BME280;26497;52.494;7.546;2022-10-04T02:46:16;101575.75;;;15.21;68.41
40788;BME280;26497;52.494;7.546;2022-10-04T02:48:47;101576.66;;;15.17;68.13
40788;BME280;26497;52.494;7.546;2022-10-04T02:51:19;101571.34;;;15.15;68.22
40788;BME280;26497;52.494;7.546;2022-10-04T02:54:00;101570.50;;;15.09;68.15
40788;BME280;26497;52.494;7.546;2022-10-04T02:56:30;101549.25;;;15.01;68.53
40788;BME280;26497;52.494;7.546;2022-10-04T02:59:01;101547.47;;;15.09;69.04
40788;BME280;26497;52.494;7.546;2022-10-04T03:01:40;101555.44;;;15.08;69.47
40788;BME280;26497;52.494;7.546;2022-10-04T03:04:12;101559.88;;;15.12;69.46
40788;BME280;26497;52.494;7.546;2022-10-04T03:06:41;101556.28;;;15.16;69.44
40788;BME280;26497;52.494;7.546;2022-10-04T03:09:12;101552.66;;;15.26;69.46
40788;BME280;26497;52.494;7.546;2022-10-04T03:11:41;101549.06;;;15.37;69.55
40788;BME280;26497;52.494;7.546;2022-10-04T03:14:12;101547.22;;;15.50;69.33
40788;BME280;26497;52.494;7.546;2022-10-04T03:16:43;101546.31;;;15.54;69.08
40788;BME280;26497;52.494;7.546;2022-10-04T03:19:12;101542.75;;;15.56;69.51
40788;BME280;26497;52.494;7.546;2022-10-04T03:21:44;101543.56;;;15.65;69.21
40788;BME280;26497;52.494;7.546;2022-10-04T03:24:18;101536.41;;;15.73;68.90
40788;BME280;26497;52.494;7.546;2022-10-04T03:26:49;101540.88;;;15.72;68.78
40788;BME280;26497;52.494;7.546;2022-10-04T03:29:18;101532.00;;;15.69;68.96
40788;BME280;26497;52.494;7.546;2022-10-04T03:31:50;101524.09;;;15.62;69.04
40788;BME280;26497;52.494;7.546;2022-10-04T03:34:21;101522.34;;;15.58;69.37
40788;BME280;26497;52.494;7.546;2022-10-04T03:36:52;101519.69;;;15.60;69.28
40788;BME280;26497;52.494;7.546;2022-10-04T03:39:27;101522.28;;;15.65;68.89
40788;BME280;26497;52.494;7.546;2022-10-04T03:41:59;101517.00;;;15.61;68.73
40788;BME280;26497;52.494;7.546;2022-10-04T03:44:29;101514.41;;;15.57;68.68
40788;BME280;26497;52.494;7.546;2022-10-04T03:46:58;101511.78;;;15.46;69.10
40788;BME280;26497;52.494;7.546;2022-10-04T03:49:31;101509.19;;;15.41;69.00
40788;BME280;26497;52.494;7.546;2022-10-04T03:52:00;101505.59;;;15.44;68.86
40788;BME280;26497;52.494;7.546;2022-10-04T03:54:30;101509.22;;;15.33;69.32
40788;BME280;26497;52.494;7.546;2022-10-04T03:56:58;101511.00;;;15.33;68.95
40788;BME280;26497;52.494;7.546;2022-10-04T03:59:27;101505.66;;;15.34;68.73
40788;BME280;26497;52.494;7.546;2022-10-04T04:02:09;101501.22;;;15.38;68.54
40788;BME280;26497;52.494;7.546;2022-10-04T04:04:44;101507.47;;;15.31;68.48
40788;BME280;26497;52.494;7.546;2022-10-04T04:07:20;101501.28;;;15.30;68.29
40788;BME280;26497;52.494;7.546;2022-10-04T04:09:57;101501.31;;;15.24;68.46
40788;BME280;26497;52.494;7.546;2022-10-04T04:12:34;101510.19;;;15.22;68.38
40788;BME280;26497;52.494;7.546;2022-10-04T04:15:07;101499.69;;;15.01;69.68
40788;BME280;26497;52.494;7.546;2022-10-04T04:17:38;101499.66;;;15.08;70.07
40788;BME280;26497;52.494;7.546;2022-10-04T04:20:21;101511.22;;;14.97;71.02
40788;BME280;26497;52.494;7.546;2022-10-04T04:23:00;101504.09;;;15.09;70.97
40788;BME280;26497;52.494;7.546;2022-10-04T04:25:32;101501.34;;;15.21;70.55
40788;BME280;26497;52.494;7.546;2022-10-04T04:28:10;101504.94;;;15.14;71.13
40788;BME280;26497;52.494;7.546;2022-10-04T04:30:44;101508.44;;;15.17;70.98
40788;BME280;26497;52.494;7.546;2022-10-04T04:33:23;101510.13;;;15.31;70.40
40788;BME280;26497;52.494;7.546;2022-10-04T04:35:55;101501.22;;;15.37;69.91
40788;BME280;26497;52.494;7.546;2022-10-04T04:38:24;101503.88;;;15.37;69.96
40788;BME280;26497;52.494;7.546;2022-10-04T04:40:53;101498.59;;;15.33;69.43
40788;BME280;26497;52.494;7.546;2022-10-04T04:43:25;101512.78;;;15.34;69.26
40788;BME280;26497;52.494;7.546;2022-10-04T04:45:53;101507.47;;;15.32;69.26
40788;BME280;26497;52.494;7.546;2022-10-04T04:48:23;101514.59;;;15.24;69.25
40788;BME280;26497;52.494;7.546;2022-10-04T04:50:54;101505.78;;;15.22;69.20
40788;BME280;26497;52.494;7.546;2022-10-04T04:53:25;101508.47;;;15.16;68.85
40788;BME280;26497;52.494;7.546;2022-10-04T04:55:57;101513.91;;;14.91;69.62
40788;BME280;26497;52.494;7.546;2022-10-04T04:58:29;101505.91;;;14.96;69.25
40788;BME280;26497;52.494;7.546;2022-10-04T05:01:00;101516.63;;;14.77;70.29
40788;BME280;26497;52.494;7.546;2022-10-04T05:03:28;101508.69;;;14.66;71.04
40788;BME280;26497;52.494;7.546;2022-10-04T05:05:55;101498.94;;;14.68;70.53
40788;BME280;26497;52.494;7.546;2022-10-04T05:08:27;101498.06;;;14.63;70.64
40788;BME280;26497;52.494;7.546;2022-10-04T05:11:02;101508.66;;;14.74;70.05
40788;BME280;26497;52.494;7.546;2022-10-04T05:13:36;101506.00;;;14.74;69.22
40788;BME280;26497;52.494;7.546;2022-10-04T05:16:09;101500.69;;;14.68;68.85
40788;BME280;26497;52.494;7.546;2022-10-04T05:18:38;101513.09;;;14.64;69.07
40788;BME280;26497;52.494;7.546;2022-10-04T05:21:09;101503.38;;;14.60;69.13
40788;BME280;26497;52.494;7.546;2022-10-04T05:23:37;101506.94;;;14.57;68.79
40788;BME280;26497;52.494;7.546;2022-10-04T05:26:10;101503.38;;;14.60;68.66
40788;BME280;26497;52.494;7.546;2022-10-04T05:28:37;101508.69;;;14.72;68.25
40788;BME280;26497;52.494;7.546;2022-10-04T05:31:27;101506.00;;;14.79;67.94
40788;BME280;26497;52.494;7.546;2022-10-04T05:33:58;101512.19;;;14.81;68.04
40788;BME280;26497;52.494;7.546;2022-10-04T05:36:43;101499.81;;;14.80;68.08
40788;BME280;26497;52.494;7.546;2022-10-04T05:39:23;101503.34;;;14.77;68.56
40788;BME280;26497;52.494;7.546;2022-10-04T05:42:00;101501.59;;;14.74;68.60
40788;BME280;26497;52.494;7.546;2022-10-04T05:44:30;101498.91;;;14.79;68.52
40788;BME280;26497;52.494;7.546;2022-10-04T05:47:04;101494.47;;;14.81;68.80
40788;BME280;26497;52.494;7.546;2022-10-04T05:49:39;101490.91;;;14.87;68.67
40788;BME280;26497;52.494;7.546;2022-10-04T05:52:14;101487.31;;;14.96;68.81
40788;BME280;26497;52.494;7.546;2022-10-04T05:54:42;101487.31;;;15.00;68.79
40788;BME280;26497;52.494;7.546;2022-10-04T05:57:30;101493.44;;;15.12;68.78
40788;BME280;26497;52.494;7.546;2022-10-04T06:00:14;101488.97;;;15.20;68.79
40788;BME280;26497;52.494;7.546;2022-10-04T06:03:33;101484.47;;;15.27;68.65
40788;BME280;26497;52.494;7.546;2022-10-04T06:06:12;101488.00;;;15.29;68.72
40788;BME280;26497;52.494;7.546;2022-10-04T06:08:50;101483.53;;;15.32;68.76
40788;BME280;26497;52.494;7.546;2022-10-04T06:11:40;101487.91;;;15.40;68.52
40788;BME280;26497;52.494;7.546;2022-10-04T06:14:53;101488.69;;;15.56;68.44
40788;BME280;26497;52.494;7.546;2022-10-04T06:17:48;101496.69;;;15.53;68.69
40788;BME280;26497;52.494;7.546;2022-10-04T06:20:45;101488.78;;;15.43;69.38
40788;BME280;26497;52.494;7.546;2022-10-04T06:23:16;101486.19;;;15.36;70.41
40788;BME280;26497;52.494;7.546;2022-10-04T06:25:49;101475.44;;;15.48;70.52
40788;BME280;26497;52.494;7.546;2022-10-04T06:28:22;101476.31;;;15.50;70.54
40788;BME280;26497;52.494;7.546;2022-10-04T06:47:30;101478.97;;;16.45;72.47
40788;BME280;26497;52.494;7.546;2022-10-04T06:50:14;101476.38;;;17.09;73.54
40788;BME280;26497;52.494;7.546;2022-10-04T06:53:09;101473.16;;;17.97;70.55
40788;BME280;26497;52.494;7.546;2022-10-04T06:56:00;101480.22;;;18.48;67.43
40788;BME280;26497;52.494;7.546;2022-10-04T06:59:17;101481.91;;;18.96;63.81
40788;BME280;26497;52.494;7.546;2022-10-04T07:01:51;101483.34;;;18.69;63.11
40788;BME280;26497;52.494;7.546;2022-10-04T07:04:32;101492.09;;;18.77;63.48
40788;BME280;26497;52.494;7.546;2022-10-04T07:07:15;101508.25;;;19.13;62.03
40788;BME280;26497;52.494;7.546;2022-10-04T07:09:53;101498.25;;;19.22;59.31
40788;BME280;26497;52.494;7.546;2022-10-04T07:12:23;101500.75;;;18.89;57.96
40788;BME280;26497;52.494;7.546;2022-10-04T07:14:52;101498.13;;;18.45;57.97
40788;BME280;26497;52.494;7.546;2022-10-04T07:17:28;101492.59;;;18.07;59.92
40788;BME280;26497;52.494;7.546;2022-10-04T07:19:57;101494.69;;;17.88;60.44
40788;BME280;26497;52.494;7.546;2022-10-04T07:22:29;101508.63;;;17.52;61.00
40788;BME280;26497;52.494;7.546;2022-10-04T07:25:11;101510.25;;;17.62;61.77
40788;BME280;26497;52.494;7.546;2022-10-04T07:27:50;101510.94;;;17.74;61.49
40788;BME280;26497;52.494;7.546;2022-10-04T07:30:44;101509.66;;;17.42;61.19
40788;BME280;26497;52.494;7.546;2022-10-04T07:33:17;101507.19;;;17.29;61.33
40788;BME280;26497;52.494;7.546;2022-10-04T07:35:53;101509.13;;;17.18;62.16
40788;BME280;26497;52.494;7.546;2022-10-04T07:38:27;101507.63;;;17.00;63.02
40788;BME280;26497;52.494;7.546;2022-10-04T07:41:05;101515.28;;;17.23;62.49
40788;BME280;26497;52.494;7.546;2022-10-04T07:43:46;101508.75;;;17.43;61.88
40788;BME280;26497;52.494;7.546;2022-10-04T07:46:20;101509.72;;;17.38;61.38
40788;BME280;26497;52.494;7.546;2022-10-04T07:48:49;101507.19;;;17.28;61.98
40788;BME280;26497;52.494;7.546;2022-10-04T07:51:28;101501.91;;;17.26;61.90
40788;BME280;26497;52.494;7.546;2022-10-04T07:54:03;101505.06;;;16.89;62.52
40788;BME280;26497;52.494;7.546;2022-10-04T07:56:42;101505.06;;;16.89;63.19
40788;BME280;26497;52.494;7.546;2022-10-04T07:59:31;101506.75;;;16.94;62.74
40788;BME280;26497;52.494;7.546;2022-10-04T08:02:17;101503.19;;;16.95;63.32
40788;BME280;26497;52.494;7.546;2022-10-04T08:04:58;101507.63;;;16.95;62.99
40788;BME280;26497;52.494;7.546;2022-10-04T08:07:45;101503.06;;;17.06;62.33
40788;BME280;26497;52.494;7.546;2022-10-04T08:10:26;101503.03;;;17.09;61.82
40788;BME280;26497;52.494;7.546;2022-10-04T08:13:04;101491.97;;;17.37;62.10
40788;BME280;26497;52.494;7.546;2022-10-04T08:15:37;101493.63;;;17.45;61.32
40788;BME280;26497;52.494;7.546;2022-10-04T08:18:23;101497.81;;;17.61;60.55
40788;BME280;26497;52.494;7.546;2022-10-04T08:20:57;101493.09;;;18.71;62.92
40788;BME280;26497;52.494;7.546;2022-10-04T08:23:47;101480.84;;;20.12;62.84
40788;BME280;26497;52.494;7.546;2022-10-04T08:26:35;101474.69;;;21.57;48.61
40788;BME280;26497;52.494;7.546;2022-10-04T08:29:34;101475.44;;;21.62;47.49
40788;BME280;26497;52.494;7.546;2022-10-04T08:32:26;101475.91;;;21.48;47.72
40788;BME280;26497;52.494;7.546;2022-10-04T08:35:31;101469.84;;;21.15;48.00
40788;BME280;26497;52.494;7.546;2022-10-04T08:38:23;101476.03;;;21.44;46.67
40788;BME280;26497;52.494;7.546;2022-10-04T08:45:14;101470.25;;;20.71;48.71
40788;BME280;26497;52.494;7.546;2022-10-04T08:48:27;101470.81;;;20.52;49.64
40788;BME280;26497;52.494;7.546;2022-10-04T08:58:01;101457.56;;;20.76;49.74
40788;BME280;26497;52.494;7.546;2022-10-04T09:00:54;101448.91;;;20.68;48.66
40788;BME280;26497;52.494;7.546;2022-10-04T09:06:51;101446.38;;;21.48;47.26
40788;BME280;26497;52.494;7.546;2022-10-04T09:10:14;101438.53;;;23.58;43.25
40788;BME280;26497;52.494;7.546;2022-10-04T09:13:02;101442.63;;;24.29;40.34
40788;BME280;26497;52.494;7.546;2022-10-04T09:15:50;101442.19;;;24.38;38.86
40788;BME280;26497;52.494;7.546;2022-10-04T09:18:22;101448.38;;;24.40;39.00
40788;BME280;26497;52.494;7.546;2022-10-04T09:20:59;101450.34;;;24.56;39.52
40788;BME280;26497;52.494;7.546;2022-10-04T09:24:16;101448.75;;;24.90;37.94
40788;BME280;26497;52.494;7.546;2022-10-04T09:26:51;101440.66;;;24.71;38.26
40788;BME280;26497;52.494;7.546;2022-10-04T09:32:42;101446.78;;;26.36;35.76
40788;BME280;26497;52.494;7.546;2022-10-04T09:38:59;101430.78;;;26.97;33.97
40788;BME280;26497;52.494;7.546;2022-10-04T09:44:55;101431.81;;;26.94;34.58
40788;BME280;26497;52.494;7.546;2022-10-04T09:47:42;101425.22;;;27.00;33.71
40788;BME280;26497;52.494;7.546;2022-10-04T09:50:44;101429.19;;;26.61;35.12
40788;BME280;26497;52.494;7.546;2022-10-04T09:53:36;101425.78;;;26.73;34.61
40788;BME280;26497;52.494;7.546;2022-10-04T09:56:55;101424.56;;;27.58;33.48
40788;BME280;26497;52.494;7.546;2022-10-04T10:00:05;101420.56;;;27.02;34.12
40788;BME280;26497;52.494;7.546;2022-10-04T10:03:18;101416.84;;;26.89;34.14
40788;BME280;26497;52.494;7.546;2022-10-04T10:06:12;101421.94;;;26.61;34.48
40788;BME280;26497;52.494;7.546;2022-10-04T10:09:00;101419.56;;;26.55;35.11
40788;BME280;26497;52.494;7.546;2022-10-04T10:11:43;101418.28;;;26.94;34.95
40788;BME280;26497;52.494;7.546;2022-10-04T10:15:00;101414.13;;;26.89;34.18
40788;BME280;26497;52.494;7.546;2022-10-04T10:17:42;101410.09;;;26.48;35.10
40788;BME280;26497;52.494;7.546;2022-10-04T10:20:37;101408.84;;;26.70;34.35
40788;BME280;26497;52.494;7.546;2022-10-04T10:23:52;101415.34;;;26.99;33.07
40788;BME280;26497;52.494;7.546;2022-10-04T10:26:59;101419.41;;;26.58;34.26
40788;BME280;26497;52.494;7.546;2022-10-04T10:29:44;101421.69;;;25.99;35.49
40788;BME280;26497;52.494;7.546;2022-10-04T10:32:32;101422.00;;;26.10;35.53
40788;BME280;26497;52.494;7.546;2022-10-04T10:35:24;101423.75;;;26.11;35.52
40788;BME280;26497;52.494;7.546;2022-10-04T10:38:13;101424.25;;;26.85;35.07
40788;BME280;26497;52.494;7.546;2022-10-04T10:43:57;101414.06;;;26.07;35.05
40788;BME280;26497;52.494;7.546;2022-10-04T10:46:47;101415.56;;;25.79;35.03
40788;BME280;26497;52.494;7.546;2022-10-04T11:05:39;101391.59;;;25.55;35.75
40788;BME280;26497;52.494;7.546;2022-10-04T11:08:44;101390.03;;;25.85;35.40
40788;BME280;26497;52.494;7.546;2022-10-04T11:14:54;101376.72;;;25.98;34.62
40788;BME280;26497;52.494;7.546;2022-10-04T11:17:55;101368.25;;;26.22;34.05
40788;BME280;26497;52.494;7.546;2022-10-04T11:21:12;101362.25;;;26.81;33.93
40788;BME280;26497;52.494;7.546;2022-10-04T11:27:40;101353.00;;;26.20;33.77
40788;BME280;26497;52.494;7.546;2022-10-04T11:30:18;101354.00;;;26.35;33.75
40788;BME280;26497;52.494;7.546;2022-10-04T11:33:38;101352.06;;;26.54;33.69
40788;BME280;26497;52.494;7.546;2022-10-04T11:36:32;101347.72;;;26.01;33.89
40788;BME280;26497;52.494;7.546;2022-10-04T11:39:32;101352.06;;;26.04;34.00
40788;BME280;26497;52.494;7.546;2022-10-04T11:42:12;101363.53;;;25.91;34.25
40788;BME280;26497;52.494;7.546;2022-10-04T11:45:26;101357.59;;;25.69;34.14
40788;BME280;26497;52.494;7.546;2022-10-04T11:48:15;101353.22;;;25.13;34.79
40788;BME280;26497;52.494;7.546;2022-10-04T11:51:10;101346.34;;;25.41;34.62
40788;BME280;26497;52.494;7.546;2022-10-04T11:54:16;101341.22;;;25.37;34.48
40788;BME280;26497;52.494;7.546;2022-10-04T11:57:11;101329.56;;;25.87;33.78
40788;BME280;26497;52.494;7.546;2022-10-04T11:59:48;101332.47;;;26.00;33.75
40788;BME280;26497;52.494;7.546;2022-10-04T12:02:55;101329.16;;;26.11;33.70
40788;BME280;26497;52.494;7.546;2022-10-04T12:08:52;101332.31;;;25.70;33.34
40788;BME280;26497;52.494;7.546;2022-10-04T12:11:59;101327.22;;;25.81;33.91
40788;BME280;26497;52.494;7.546;2022-10-04T12:15:14;101318.31;;;26.45;32.96
40788;BME280;26497;52.494;7.546;2022-10-04T12:18:30;101325.41;;;26.78;32.56
40788;BME280;26497;52.494;7.546;2022-10-04T12:21:19;101315.09;;;26.38;33.64
40788;BME280;26497;52.494;7.546;2022-10-04T12:24:08;101297.19;;;26.52;32.84
40788;BME280;26497;52.494;7.546;2022-10-04T12:30:26;101296.09;;;26.40;32.96
40788;BME280;26497;52.494;7.546;2022-10-04T12:33:11;101299.88;;;26.84;32.08
40788;BME280;26497;52.494;7.546;2022-10-04T12:36:11;101301.44;;;26.88;32.81
40788;BME280;26497;52.494;7.546;2022-10-04T12:39:18;101295.09;;;26.57;33.09
40788;BME280;26497;52.494;7.546;2022-10-04T12:42:04;101288.97;;;26.53;33.31
40788;BME280;26497;52.494;7.546;2022-10-04T12:44:47;101285.97;;;27.20;31.60
40788;BME280;26497;52.494;7.546;2022-10-04T12:50:39;101291.09;;;27.40;31.19
40788;BME280;26497;52.494;7.546;2022-10-04T12:53:23;101289.56;;;26.90;31.91
40788;BME280;26497;52.494;7.546;2022-10-04T12:56:20;101284.38;;;27.02;31.73
40788;BME280;26497;52.494;7.546;2022-10-04T12:59:10;101286.41;;;26.98;31.87
40788;BME280;26497;52.494;7.546;2022-10-04T13:01:49;101278.25;;;26.84;31.19
40788;BME280;26497;52.494;7.546;2022-10-04T13:04:30;101273.06;;;26.95;32.03
40788;BME280;26497;52.494;7.546;2022-10-04T13:10:12;101253.63;;;27.77;30.61
40788;BME280;26497;52.494;7.546;2022-10-04T13:13:13;101265.00;;;28.25;29.35
40788;BME280;26497;52.494;7.546;2022-10-04T13:15:52;101269.63;;;28.23;29.59
40788;BME280;26497;52.494;7.546;2022-10-04T13:18:29;101261.31;;;28.27;29.68
40788;BME280;26497;52.494;7.546;2022-10-04T13:21:02;101260.13;;;28.31;29.33
40788;BME280;26497;52.494;7.546;2022-10-04T13:23:53;101255.44;;;28.47;28.54
40788;BME280;26497;52.494;7.546;2022-10-04T13:26:35;101241.41;;;28.40;29.43
40788;BME280;26497;52.494;7.546;2022-10-04T13:29:12;101235.38;;;28.63;29.77
40788;BME280;26497;52.494;7.546;2022-10-04T13:31:49;101232.66;;;29.03;28.43
40788;BME280;26497;52.494;7.546;2022-10-04T13:34:31;101227.78;;;29.21;27.79
40788;BME280;26497;52.494;7.546;2022-10-04T13:37:28;101224.69;;;29.91;27.77
40788;BME280;26497;52.494;7.546;2022-10-04T13:40:38;101229.06;;;30.66;26.65
40788;BME280;26497;52.494;7.546;2022-10-04T13:46:36;101233.56;;;30.54;26.64
40788;BME280;26497;52.494;7.546;2022-10-04T13:49:22;101225.38;;;29.68;26.84
40788;BME280;26497;52.494;7.546;2022-10-04T13:52:09;101227.69;;;29.23;28.13
40788;BME280;26497;52.494;7.546;2022-10-04T13:55:11;101232.78;;;29.02;28.23
40788;BME280;26497;52.494;7.546;2022-10-04T13:58:17;101233.66;;;28.34;29.11
40788;BME280;26497;52.494;7.546;2022-10-04T14:03:57;101231.22;;;28.84;28.46
40788;BME280;26497;52.494;7.546;2022-10-04T14:07:11;101225.41;;;29.04;28.41
40788;BME280;26497;52.494;7.546;2022-10-04T14:09:59;101219.22;;;28.74;28.56
40788;BME280;26497;52.494;7.546;2022-10-04T14:12:55;101216.28;;;28.09;29.47
40788;BME280;26497;52.494;7.546;2022-10-04T14:19:36;101215.03;;;25.40;33.48
40788;BME280;26497;52.494;7.546;2022-10-04T14:22:53;101213.78;;;24.79;34.79
40788;BME280;26497;52.494;7.546;2022-10-04T14:26:06;101190.56;;;24.57;35.75
40788;BME280;26497;52.494;7.546;2022-10-04T14:29:13;101200.47;;;24.39;35.90
40788;BME280;26497;52.494;7.546;2022-10-04T14:32:33;101192.50;;;24.37;36.20
40788;BME280;26497;52.494;7.546;2022-10-04T14:35:08;101187.38;;;24.13;36.94
40788;BME280;26497;52.494;7.546;2022-10-04T14:38:35;101180.81;;;24.37;36.33
40788;BME280;26497;52.494;7.546;2022-10-04T14:41:45;101180.28;;;25.34;35.33
40788;BME280;26497;52.494;7.546;2022-10-04T14:44:58;101177.50;;;25.69;33.59
40788;BME280;26497;52.494;7.546;2022-10-04T14:48:19;101190.59;;;25.77;33.52
40788;BME280;26497;52.494;7.546;2022-10-04T14:51:19;101180.16;;;25.20;34.17
40788;BME280;26497;52.494;7.546;2022-10-04T14:53:57;101185.34;;;24.71;34.93
40788;BME280;26497;52.494;7.546;2022-10-04T14:56:55;101188.03;;;24.71;35.44
40788;BME280;26497;52.494;7.546;2022-10-04T14:59:59;101186.28;;;24.70;35.41
40788;BME280;26497;52.494;7.546;2022-10-04T15:03:27;101187.56;;;24.63;35.96
40788;BME280;26497;52.494;7.546;2022-10-04T15:06:21;101187.66;;;24.44;36.07
40788;BME280;26497;52.494;7.546;2022-10-04T15:09:19;101183.56;;;24.18;36.90
40788;BME280;26497;52.494;7.546;2022-10-04T15:11:55;101205.72;;;24.05;37.09
40788;BME280;26497;52.494;7.546;2022-10-04T15:14:35;101203.81;;;24.07;37.31
40788;BME280;26497;52.494;7.546;2022-10-04T15:17:08;101195.00;;;24.04;37.53
40788;BME280;26497;52.494;7.546;2022-10-04T15:20:00;101195.28;;;23.78;38.04
40788;BME280;26497;52.494;7.546;2022-10-04T15:22:30;101199.22;;;23.71;37.77
40788;BME280;26497;52.494;7.546;2022-10-04T15:25:39;101196.25;;;23.58;38.98
40788;BME280;26497;52.494;7.546;2022-10-04T15:28:27;101197.44;;;23.32;38.78
40788;BME280;26497;52.494;7.546;2022-10-04T15:31:03;101188.44;;;23.12;39.51
40788;BME280;26497;52.494;7.546;2022-10-04T15:33:40;101198.25;;;23.13;39.25
40788;BME280;26497;52.494;7.546;2022-10-04T15:36:37;101187.50;;;22.92;39.89
40788;BME280;26497;52.494;7.546;2022-10-04T15:42:26;101188.88;;;22.60;41.30
40788;BME280;26497;52.494;7.546;2022-10-04T15:48:26;101193.34;;;22.81;41.10
40788;BME280;26497;52.494;7.546;2022-10-04T15:51:05;101199.75;;;22.79;41.07
40788;BME280;26497;52.494;7.546;2022-10-04T15:56:47;101190.03;;;22.54;41.98
40788;BME280;26497;52.494;7.546;2022-10-04T15:59:44;101189.84;;;22.36;42.68